Aiken, SC (29803)

12:00 PM EST on February 06, 2016 (GMT -0500)
Woodwinds | | Change Station
CLOSE
Current Station
Personal Weather Station
Location: Aiken, SC
Elevation: 450 ft
Nearby Weather Stations

Elev 450 ft 33.53 °N, 81.73 °W | Updated 4 seconds ago

Partly Cloudy
Partly Cloudy
48.8 °F
Feels Like 49 °F
N
2.0
Wind Variable Wind from NE
Gusts 5.0 mph

Today
High -- | Low -- °F
--% Chance of Precip.
Yesterday
High -- | Low -- °F
Precip. -- in
Pressure 30.39 in
Visibility -9999.0 miles
Clouds Scattered Clouds 5000 ft
Mostly Cloudy 6000 ft
Windchill 49 °F
Dew Point 26 °F
Humidity 40%
Rainfall 0.00 in
Snow Depth Not available.
7:19 AM 6:02 PM
Waning Crescent, 5% visible
METAR KAIK 061655Z AUTO 03007KT SCT050 BKN060 07/M06 A3039 RMK AO2 PWINO
Pressure 30.39 in
Visibility -9999.0 miles
Clouds Scattered Clouds 5000 ft
Mostly Cloudy 6000 ft
Windchill 49 °F
Dew Point 26 °F
Humidity 40%
Rainfall 0.00 in
Snow Depth Not available.
7:19 AM 6:02 PM
Waning Crescent, 5% visible
METAR KAIK 061655Z AUTO 03007KT SCT050 BKN060 07/M06 A3039 RMK AO2 PWINO

10-Day Weather Forecast

Almanac

Astronomy

Feb. 06, 2016 Rise Set
Actual Time
Civil Twilight
Nautical Twilight
Astronomical Twilight
Moon
Length of Visible Light
Length of Day
Tomorrow will be .
, % of the Moon is Illuminated

Today's Extremes

State Highs State Lows

Community

WunderPhotos

Upload Photos

1,891,017 photos uploaded!

WunderBlog® & News

Nearby

Air Quality

  Air Quality AQ Index Pollutant
Not available.

Snow Depth

Station Depth Elevation

Earthquake Activity

City Distance Mag. Time & Date
Minimum magnitude displayed is 2.5.

Coastal Water Temperatures

Place Temperature

Stations

Nearby Weather Stations

Station Location Temp. Windchill Dew Point Humidity Wind Precip. Elev Updated Type
                   

Watches & Warnings

There are currently no watches in effect.